sensor_id;sensor_type;location;lat;lon;timestamp;P1;durP1;ratioP1;P2;durP2;ratioP2
44822;SDS011;51097;51.984;5.650;2023-04-07T00:01:21;25.88;;;16.52;;
44822;SDS011;51097;51.984;5.650;2023-04-07T00:03:47;27.60;;;17.13;;
44822;SDS011;51097;51.984;5.650;2023-04-07T00:06:12;28.00;;;16.58;;
44822;SDS011;51097;51.984;5.650;2023-04-07T00:08:38;24.95;;;15.73;;
44822;SDS011;51097;51.984;5.650;2023-04-07T00:11:04;25.90;;;16.08;;
44822;SDS011;51097;51.984;5.650;2023-04-07T00:13:30;26.20;;;15.20;;
44822;SDS011;51097;51.984;5.650;2023-04-07T00:15:55;31.00;;;14.93;;
44822;SDS011;51097;51.984;5.650;2023-04-07T00:18:21;17.30;;;13.07;;
44822;SDS011;51097;51.984;5.650;2023-04-07T00:20:46;16.77;;;11.73;;
44822;SDS011;51097;51.984;5.650;2023-04-07T00:23:12;19.33;;;12.18;;
44822;SDS011;51097;51.984;5.650;2023-04-07T00:25:38;15.35;;;10.55;;
44822;SDS011;51097;51.984;5.650;2023-04-07T00:28:03;20.70;;;11.30;;
44822;SDS011;51097;51.984;5.650;2023-04-07T00:30:29;18.50;;;11.40;;
44822;SDS011;51097;51.984;5.650;2023-04-07T00:32:54;16.67;;;10.48;;
44822;SDS011;51097;51.984;5.650;2023-04-07T00:35:20;14.40;;;10.60;;
44822;SDS011;51097;51.984;5.650;2023-04-07T00:37:46;20.67;;;10.30;;
44822;SDS011;51097;51.984;5.650;2023-04-07T00:40:11;16.23;;;9.18;;
44822;SDS011;51097;51.984;5.650;2023-04-07T00:42:37;17.23;;;9.43;;
44822;SDS011;51097;51.984;5.650;2023-04-07T00:45:03;15.05;;;8.23;;
44822;SDS011;51097;51.984;5.650;2023-04-07T00:47:29;12.70;;;9.13;;
44822;SDS011;51097;51.984;5.650;2023-04-07T00:49:54;13.20;;;8.73;;
44822;SDS011;51097;51.984;5.650;2023-04-07T00:52:20;14.45;;;9.00;;
44822;SDS011;51097;51.984;5.650;2023-04-07T00:54:52;14.10;;;9.73;;
44822;SDS011;51097;51.984;5.650;2023-04-07T00:57:19;16.40;;;9.48;;
44822;SDS011;51097;51.984;5.650;2023-04-07T00:59:45;18.05;;;9.32;;
44822;SDS011;51097;51.984;5.650;2023-04-07T01:02:15;14.00;;;9.63;;
44822;SDS011;51097;51.984;5.650;2023-04-07T01:07:31;17.85;;;7.70;;
44822;SDS011;51097;51.984;5.650;2023-04-07T01:10:03;15.30;;;7.90;;
44822;SDS011;51097;51.984;5.650;2023-04-07T01:12:35;12.50;;;7.60;;
44822;SDS011;51097;51.984;5.650;2023-04-07T01:15:11;14.00;;;7.38;;
44822;SDS011;51097;51.984;5.650;2023-04-07T01:17:42;14.90;;;8.75;;
44822;SDS011;51097;51.984;5.650;2023-04-07T01:20:11;15.02;;;9.40;;
44822;SDS011;51097;51.984;5.650;2023-04-07T01:22:46;17.38;;;9.38;;
44822;SDS011;51097;51.984;5.650;2023-04-07T01:31:27;14.98;;;10.02;;
44822;SDS011;51097;51.984;5.650;2023-04-07T01:33:53;15.48;;;9.90;;
44822;SDS011;51097;51.984;5.650;2023-04-07T01:36:20;18.42;;;10.73;;
44822;SDS011;51097;51.984;5.650;2023-04-07T01:38:47;19.05;;;11.48;;
44822;SDS011;51097;51.984;5.650;2023-04-07T01:41:14;18.25;;;10.90;;
44822;SDS011;51097;51.984;5.650;2023-04-07T01:43:42;18.80;;;10.48;;
44822;SDS011;51097;51.984;5.650;2023-04-07T01:46:09;20.17;;;10.32;;
44822;SDS011;51097;51.984;5.650;2023-04-07T01:48:35;17.27;;;9.60;;
44822;SDS011;51097;51.984;5.650;2023-04-07T01:51:02;19.38;;;9.85;;
44822;SDS011;51097;51.984;5.650;2023-04-07T01:53:29;16.23;;;10.10;;
44822;SDS011;51097;51.984;5.650;2023-04-07T01:55:56;21.45;;;10.35;;
44822;SDS011;51097;51.984;5.650;2023-04-07T01:58:21;16.73;;;10.45;;
44822;SDS011;51097;51.984;5.650;2023-04-07T02:00:47;16.52;;;10.10;;
44822;SDS011;51097;51.984;5.650;2023-04-07T02:03:17;17.73;;;11.13;;
44822;SDS011;51097;51.984;5.650;2023-04-07T02:05:47;19.92;;;10.35;;
44822;SDS011;51097;51.984;5.650;2023-04-07T02:08:16;20.40;;;10.95;;
44822;SDS011;51097;51.984;5.650;2023-04-07T02:10:45;17.27;;;11.45;;
44822;SDS011;51097;51.984;5.650;2023-04-07T02:13:14;21.13;;;12.13;;
44822;SDS011;51097;51.984;5.650;2023-04-07T02:15:42;21.92;;;12.75;;
44822;SDS011;51097;51.984;5.650;2023-04-07T02:18:09;25.98;;;12.30;;
44822;SDS011;51097;51.984;5.650;2023-04-07T02:20:37;18.52;;;12.10;;
44822;SDS011;51097;51.984;5.650;2023-04-07T02:23:03;20.73;;;11.63;;
44822;SDS011;51097;51.984;5.650;2023-04-07T02:25:34;19.48;;;11.18;;
44822;SDS011;51097;51.984;5.650;2023-04-07T02:28:02;19.10;;;10.98;;
44822;SDS011;51097;51.984;5.650;2023-04-07T02:30:29;20.52;;;11.25;;
44822;SDS011;51097;51.984;5.650;2023-04-07T02:32:55;17.77;;;10.98;;
44822;SDS011;51097;51.984;5.650;2023-04-07T02:35:21;24.33;;;11.07;;
44822;SDS011;51097;51.984;5.650;2023-04-07T02:37:47;19.08;;;11.23;;
44822;SDS011;51097;51.984;5.650;2023-04-07T02:40:13;18.95;;;10.23;;
44822;SDS011;51097;51.984;5.650;2023-04-07T02:42:38;19.38;;;10.18;;
44822;SDS011;51097;51.984;5.650;2023-04-07T02:45:05;17.10;;;10.85;;
44822;SDS011;51097;51.984;5.650;2023-04-07T02:47:31;21.45;;;11.43;;
44822;SDS011;51097;51.984;5.650;2023-04-07T02:49:57;19.55;;;12.02;;
44822;SDS011;51097;51.984;5.650;2023-04-07T02:52:23;26.65;;;13.93;;
44822;SDS011;51097;51.984;5.650;2023-04-07T02:54:48;26.30;;;12.85;;
44822;SDS011;51097;51.984;5.650;2023-04-07T02:57:14;25.38;;;11.50;;
44822;SDS011;51097;51.984;5.650;2023-04-07T02:59:39;18.52;;;13.30;;
44822;SDS011;51097;51.984;5.650;2023-04-07T03:02:05;25.92;;;13.60;;
44822;SDS011;51097;51.984;5.650;2023-04-07T03:04:31;27.20;;;14.15;;
44822;SDS011;51097;51.984;5.650;2023-04-07T03:06:57;21.50;;;12.55;;
44822;SDS011;51097;51.984;5.650;2023-04-07T03:09:22;23.95;;;12.45;;
44822;SDS011;51097;51.984;5.650;2023-04-07T03:11:48;20.25;;;12.98;;
44822;SDS011;51097;51.984;5.650;2023-04-07T03:14:14;24.92;;;13.60;;
44822;SDS011;51097;51.984;5.650;2023-04-07T03:16:40;24.90;;;13.88;;
44822;SDS011;51097;51.984;5.650;2023-04-07T03:19:06;29.58;;;14.23;;
44822;SDS011;51097;51.984;5.650;2023-04-07T03:21:31;29.90;;;15.13;;
44822;SDS011;51097;51.984;5.650;2023-04-07T03:23:57;26.23;;;14.70;;
44822;SDS011;51097;51.984;5.650;2023-04-07T03:26:23;24.85;;;15.15;;
44822;SDS011;51097;51.984;5.650;2023-04-07T03:28:48;27.48;;;14.40;;
44822;SDS011;51097;51.984;5.650;2023-04-07T03:31:14;30.05;;;15.18;;
44822;SDS011;51097;51.984;5.650;2023-04-07T03:33:39;26.88;;;15.00;;
44822;SDS011;51097;51.984;5.650;2023-04-07T03:36:05;31.70;;;15.15;;
44822;SDS011;51097;51.984;5.650;2023-04-07T03:38:32;29.65;;;15.35;;
44822;SDS011;51097;51.984;5.650;2023-04-07T03:40:57;23.38;;;13.88;;
44822;SDS011;51097;51.984;5.650;2023-04-07T03:43:23;25.77;;;14.90;;
44822;SDS011;51097;51.984;5.650;2023-04-07T03:45:49;26.83;;;15.48;;
44822;SDS011;51097;51.984;5.650;2023-04-07T03:48:16;32.97;;;16.10;;
44822;SDS011;51097;51.984;5.650;2023-04-07T03:50:42;30.48;;;15.35;;
44822;SDS011;51097;51.984;5.650;2023-04-07T03:53:08;27.70;;;15.65;;
44822;SDS011;51097;51.984;5.650;2023-04-07T03:55:33;28.48;;;15.80;;
44822;SDS011;51097;51.984;5.650;2023-04-07T03:58:00;28.58;;;15.60;;
44822;SDS011;51097;51.984;5.650;2023-04-07T04:00:25;32.92;;;15.55;;
44822;SDS011;51097;51.984;5.650;2023-04-07T04:02:51;33.00;;;16.60;;
44822;SDS011;51097;51.984;5.650;2023-04-07T04:05:17;28.77;;;15.75;;
44822;SDS011;51097;51.984;5.650;2023-04-07T04:07:42;28.90;;;15.48;;
44822;SDS011;51097;51.984;5.650;2023-04-07T04:10:08;26.08;;;14.68;;
44822;SDS011;51097;51.984;5.650;2023-04-07T04:12:34;25.92;;;14.75;;
44822;SDS011;51097;51.984;5.650;2023-04-07T04:15:00;31.45;;;15.25;;
44822;SDS011;51097;51.984;5.650;2023-04-07T04:17:26;28.65;;;14.10;;
44822;SDS011;51097;51.984;5.650;2023-04-07T04:19:51;31.15;;;14.20;;
44822;SDS011;51097;51.984;5.650;2023-04-07T04:22:18;28.45;;;13.77;;
44822;SDS011;51097;51.984;5.650;2023-04-07T04:24:43;27.88;;;12.43;;
44822;SDS011;51097;51.984;5.650;2023-04-07T04:27:09;20.67;;;11.82;;
44822;SDS011;51097;51.984;5.650;2023-04-07T04:29:34;25.58;;;12.57;;
44822;SDS011;51097;51.984;5.650;2023-04-07T04:32:00;31.63;;;13.77;;
44822;SDS011;51097;51.984;5.650;2023-04-07T04:34:26;33.63;;;14.80;;
44822;SDS011;51097;51.984;5.650;2023-04-07T04:36:51;32.00;;;15.57;;
44822;SDS011;51097;51.984;5.650;2023-04-07T04:39:17;24.45;;;13.00;;
44822;SDS011;51097;51.984;5.650;2023-04-07T04:41:43;22.27;;;12.25;;
44822;SDS011;51097;51.984;5.650;2023-04-07T04:44:09;32.15;;;13.23;;
44822;SDS011;51097;51.984;5.650;2023-04-07T04:46:35;24.45;;;13.50;;
44822;SDS011;51097;51.984;5.650;2023-04-07T04:49:00;26.25;;;13.27;;
44822;SDS011;51097;51.984;5.650;2023-04-07T04:51:26;23.48;;;12.40;;
44822;SDS011;51097;51.984;5.650;2023-04-07T04:53:52;26.48;;;14.15;;
44822;SDS011;51097;51.984;5.650;2023-04-07T04:56:17;24.17;;;13.15;;
44822;SDS011;51097;51.984;5.650;2023-04-07T04:58:43;25.88;;;13.10;;
44822;SDS011;51097;51.984;5.650;2023-04-07T05:01:11;26.63;;;13.05;;
44822;SDS011;51097;51.984;5.650;2023-04-07T05:03:37;28.08;;;13.23;;
44822;SDS011;51097;51.984;5.650;2023-04-07T05:06:03;25.27;;;12.70;;
44822;SDS011;51097;51.984;5.650;2023-04-07T05:08:29;24.73;;;13.02;;
44822;SDS011;51097;51.984;5.650;2023-04-07T05:10:55;29.48;;;15.38;;
44822;SDS011;51097;51.984;5.650;2023-04-07T05:13:20;23.17;;;12.43;;
44822;SDS011;51097;51.984;5.650;2023-04-07T05:15:46;21.60;;;12.38;;
44822;SDS011;51097;51.984;5.650;2023-04-07T05:18:12;27.67;;;12.60;;
44822;SDS011;51097;51.984;5.650;2023-04-07T05:20:37;21.35;;;12.65;;
44822;SDS011;51097;51.984;5.650;2023-04-07T05:23:03;22.85;;;13.55;;
44822;SDS011;51097;51.984;5.650;2023-04-07T05:25:29;23.73;;;12.85;;
44822;SDS011;51097;51.984;5.650;2023-04-07T05:27:54;22.27;;;12.63;;
44822;SDS011;51097;51.984;5.650;2023-04-07T05:30:22;26.38;;;12.20;;
44822;SDS011;51097;51.984;5.650;2023-04-07T05:32:48;26.33;;;13.73;;
44822;SDS011;51097;51.984;5.650;2023-04-07T05:35:13;27.23;;;12.95;;
44822;SDS011;51097;51.984;5.650;2023-04-07T05:37:39;22.83;;;12.35;;
44822;SDS011;51097;51.984;5.650;2023-04-07T05:40:05;24.50;;;13.05;;
44822;SDS011;51097;51.984;5.650;2023-04-07T05:42:31;20.85;;;11.52;;
44822;SDS011;51097;51.984;5.650;2023-04-07T05:44:57;23.10;;;12.95;;
44822;SDS011;51097;51.984;5.650;2023-04-07T05:47:23;28.40;;;12.93;;
44822;SDS011;51097;51.984;5.650;2023-04-07T05:49:51;28.80;;;12.63;;
44822;SDS011;51097;51.984;5.650;2023-04-07T05:52:16;26.55;;;13.05;;
44822;SDS011;51097;51.984;5.650;2023-04-07T05:54:42;22.17;;;11.98;;
44822;SDS011;51097;51.984;5.650;2023-04-07T05:57:08;24.58;;;12.50;;
44822;SDS011;51097;51.984;5.650;2023-04-07T05:59:34;25.42;;;12.38;;
44822;SDS011;51097;51.984;5.650;2023-04-07T06:02:03;23.60;;;11.75;;
44822;SDS011;51097;51.984;5.650;2023-04-07T06:04:28;27.52;;;11.77;;
44822;SDS011;51097;51.984;5.650;2023-04-07T06:06:54;24.10;;;12.23;;
44822;SDS011;51097;51.984;5.650;2023-04-07T06:09:23;20.25;;;11.50;;
44822;SDS011;51097;51.984;5.650;2023-04-07T06:11:48;19.70;;;11.48;;
44822;SDS011;51097;51.984;5.650;2023-04-07T06:14:15;22.42;;;11.73;;
44822;SDS011;51097;51.984;5.650;2023-04-07T06:16:42;22.08;;;11.30;;
44822;SDS011;51097;51.984;5.650;2023-04-07T06:19:07;23.05;;;12.73;;
44822;SDS011;51097;51.984;5.650;2023-04-07T06:21:33;22.88;;;11.95;;
44822;SDS011;51097;51.984;5.650;2023-04-07T06:23:59;19.92;;;11.93;;
44822;SDS011;51097;51.984;5.650;2023-04-07T06:26:25;17.52;;;11.07;;
44822;SDS011;51097;51.984;5.650;2023-04-07T06:28:51;25.02;;;12.07;;
44822;SDS011;51097;51.984;5.650;2023-04-07T06:31:17;24.15;;;11.55;;
44822;SDS011;51097;51.984;5.650;2023-04-07T06:33:43;20.75;;;11.95;;
44822;SDS011;51097;51.984;5.650;2023-04-07T06:36:26;19.58;;;12.27;;
44822;SDS011;51097;51.984;5.650;2023-04-07T06:39:07;26.42;;;13.27;;
44822;SDS011;51097;51.984;5.650;2023-04-07T06:44:22;17.42;;;10.75;;
44822;SDS011;51097;51.984;5.650;2023-04-07T06:46:48;17.00;;;10.57;;
44822;SDS011;51097;51.984;5.650;2023-04-07T06:49:24;16.00;;;10.02;;
44822;SDS011;51097;51.984;5.650;2023-04-07T06:55:44;18.58;;;9.85;;
44822;SDS011;51097;51.984;5.650;2023-04-07T06:58:17;14.52;;;9.23;;
44822;SDS011;51097;51.984;5.650;2023-04-07T07:00:43;12.73;;;8.20;;
44822;SDS011;51097;51.984;5.650;2023-04-07T07:03:08;20.52;;;10.45;;
44822;SDS011;51097;51.984;5.650;2023-04-07T07:05:34;17.15;;;8.68;;
44822;SDS011;51097;51.984;5.650;2023-04-07T07:07:59;16.23;;;8.38;;
44822;SDS011;51097;51.984;5.650;2023-04-07T07:10:25;14.93;;;9.10;;
44822;SDS011;51097;51.984;5.650;2023-04-07T07:12:51;19.27;;;8.93;;
44822;SDS011;51097;51.984;5.650;2023-04-07T07:15:16;16.35;;;8.40;;
44822;SDS011;51097;51.984;5.650;2023-04-07T07:17:42;19.05;;;8.10;;
44822;SDS011;51097;51.984;5.650;2023-04-07T07:20:08;16.05;;;7.90;;
44822;SDS011;51097;51.984;5.650;2023-04-07T07:22:34;19.38;;;9.23;;
44822;SDS011;51097;51.984;5.650;2023-04-07T07:25:00;17.48;;;8.13;;
44822;SDS011;51097;51.984;5.650;2023-04-07T07:27:25;15.65;;;9.05;;
44822;SDS011;51097;51.984;5.650;2023-04-07T07:29:51;18.60;;;9.55;;
44822;SDS011;51097;51.984;5.650;2023-04-07T07:32:17;16.38;;;10.20;;
44822;SDS011;51097;51.984;5.650;2023-04-07T07:34:42;19.63;;;11.98;;
44822;SDS011;51097;51.984;5.650;2023-04-07T07:37:08;16.70;;;10.70;;
44822;SDS011;51097;51.984;5.650;2023-04-07T07:39:33;16.30;;;10.05;;
44822;SDS011;51097;51.984;5.650;2023-04-07T07:41:59;18.30;;;10.32;;
44822;SDS011;51097;51.984;5.650;2023-04-07T07:44:25;17.05;;;9.93;;
44822;SDS011;51097;51.984;5.650;2023-04-07T07:46:51;20.27;;;10.63;;
44822;SDS011;51097;51.984;5.650;2023-04-07T07:49:16;15.48;;;9.55;;
44822;SDS011;51097;51.984;5.650;2023-04-07T07:51:42;19.80;;;10.63;;
44822;SDS011;51097;51.984;5.650;2023-04-07T07:54:08;11.98;;;8.45;;
44822;SDS011;51097;51.984;5.650;2023-04-07T07:56:33;20.38;;;9.98;;
44822;SDS011;51097;51.984;5.650;2023-04-07T07:58:59;16.60;;;9.23;;
44822;SDS011;51097;51.984;5.650;2023-04-07T08:01:25;15.98;;;9.15;;
44822;SDS011;51097;51.984;5.650;2023-04-07T08:03:51;16.50;;;9.20;;
44822;SDS011;51097;51.984;5.650;2023-04-07T08:06:16;12.80;;;8.38;;
44822;SDS011;51097;51.984;5.650;2023-04-07T08:08:42;15.90;;;8.02;;
44822;SDS011;51097;51.984;5.650;2023-04-07T08:11:08;12.82;;;7.43;;
44822;SDS011;51097;51.984;5.650;2023-04-07T08:13:33;11.88;;;8.88;;
44822;SDS011;51097;51.984;5.650;2023-04-07T08:15:59;15.18;;;7.78;;
44822;SDS011;51097;51.984;5.650;2023-04-07T08:18:24;14.32;;;7.40;;
44822;SDS011;51097;51.984;5.650;2023-04-07T08:20:50;13.52;;;8.20;;
44822;SDS011;51097;51.984;5.650;2023-04-07T08:23:16;18.55;;;8.10;;
44822;SDS011;51097;51.984;5.650;2023-04-07T08:25:42;15.50;;;7.47;;
44822;SDS011;51097;51.984;5.650;2023-04-07T08:28:07;11.07;;;6.75;;
44822;SDS011;51097;51.984;5.650;2023-04-07T08:30:33;17.80;;;7.60;;
44822;SDS011;51097;51.984;5.650;2023-04-07T08:32:58;15.25;;;6.85;;
44822;SDS011;51097;51.984;5.650;2023-04-07T08:35:24;12.73;;;6.95;;
44822;SDS011;51097;51.984;5.650;2023-04-07T08:37:50;15.25;;;8.50;;
44822;SDS011;51097;51.984;5.650;2023-04-07T08:40:15;13.98;;;6.97;;
44822;SDS011;51097;51.984;5.650;2023-04-07T08:42:42;8.77;;;5.65;;
44822;SDS011;51097;51.984;5.650;2023-04-07T08:45:11;12.25;;;6.28;;
44822;SDS011;51097;51.984;5.650;2023-04-07T08:47:37;11.20;;;6.80;;
44822;SDS011;51097;51.984;5.650;2023-04-07T08:50:06;10.77;;;6.40;;
44822;SDS011;51097;51.984;5.650;2023-04-07T08:52:37;20.55;;;7.50;;
44822;SDS011;51097;51.984;5.650;2023-04-07T08:55:20;16.25;;;6.25;;
44822;SDS011;51097;51.984;5.650;2023-04-07T08:57:46;13.80;;;6.20;;
44822;SDS011;51097;51.984;5.650;2023-04-07T09:00:13;12.85;;;6.55;;
44822;SDS011;51097;51.984;5.650;2023-04-07T09:02:39;14.63;;;6.18;;
44822;SDS011;51097;51.984;5.650;2023-04-07T09:05:10;16.98;;;8.00;;
44822;SDS011;51097;51.984;5.650;2023-04-07T09:07:37;14.55;;;6.40;;
44822;SDS011;51097;51.984;5.650;2023-04-07T09:10:10;14.77;;;6.28;;
44822;SDS011;51097;51.984;5.650;2023-04-07T09:12:35;10.07;;;5.95;;
44822;SDS011;51097;51.984;5.650;2023-04-07T09:15:02;15.93;;;7.05;;
44822;SDS011;51097;51.984;5.650;2023-04-07T09:17:30;10.18;;;5.43;;
44822;SDS011;51097;51.984;5.650;2023-04-07T09:19:56;9.45;;;5.28;;
44822;SDS011;51097;51.984;5.650;2023-04-07T09:22:36;14.10;;;4.90;;
44822;SDS011;51097;51.984;5.650;2023-04-07T09:25:09;10.97;;;5.00;;
44822;SDS011;51097;51.984;5.650;2023-04-07T09:30:36;10.57;;;4.72;;
44822;SDS011;51097;51.984;5.650;2023-04-07T09:33:02;9.27;;;4.15;;
44822;SDS011;51097;51.984;5.650;2023-04-07T09:35:27;6.97;;;4.07;;
44822;SDS011;51097;51.984;5.650;2023-04-07T09:38:04;10.85;;;3.95;;
44822;SDS011;51097;51.984;5.650;2023-04-07T09:40:33;7.95;;;3.95;;
44822;SDS011;51097;51.984;5.650;2023-04-07T09:43:00;7.40;;;4.20;;
44822;SDS011;51097;51.984;5.650;2023-04-07T09:45:28;5.88;;;3.78;;
44822;SDS011;51097;51.984;5.650;2023-04-07T09:47:59;5.72;;;3.60;;
44822;SDS011;51097;51.984;5.650;2023-04-07T09:50:33;6.05;;;3.28;;
44822;SDS011;51097;51.984;5.650;2023-04-07T09:53:00;5.32;;;3.45;;
44822;SDS011;51097;51.984;5.650;2023-04-07T09:55:27;8.63;;;4.32;;
44822;SDS011;51097;51.984;5.650;2023-04-07T09:57:53;7.93;;;4.88;;
44822;SDS011;51097;51.984;5.650;2023-04-07T10:00:20;15.05;;;5.03;;
44822;SDS011;51097;51.984;5.650;2023-04-07T10:02:46;11.10;;;5.40;;
44822;SDS011;51097;51.984;5.650;2023-04-07T10:05:13;10.10;;;4.13;;
44822;SDS011;51097;51.984;5.650;2023-04-07T10:07:39;7.22;;;5.05;;
44822;SDS011;51097;51.984;5.650;2023-04-07T10:10:05;11.38;;;5.45;;
44822;SDS011;51097;51.984;5.650;2023-04-07T10:12:38;9.18;;;4.50;;
44822;SDS011;51097;51.984;5.650;2023-04-07T10:15:05;12.85;;;4.60;;
44822;SDS011;51097;51.984;5.650;2023-04-07T10:17:32;12.82;;;5.18;;
44822;SDS011;51097;51.984;5.650;2023-04-07T10:19:58;8.93;;;4.60;;
44822;SDS011;51097;51.984;5.650;2023-04-07T10:22:26;9.88;;;4.72;;
44822;SDS011;51097;51.984;5.650;2023-04-07T10:25:08;7.85;;;4.75;;
44822;SDS011;51097;51.984;5.650;2023-04-07T10:27:53;13.38;;;5.80;;
44822;SDS011;51097;51.984;5.650;2023-04-07T10:30:23;10.23;;;5.57;;
44822;SDS011;51097;51.984;5.650;2023-04-07T10:32:51;13.85;;;5.93;;
44822;SDS011;51097;51.984;5.650;2023-04-07T10:35:18;10.63;;;5.32;;
44822;SDS011;51097;51.984;5.650;2023-04-07T10:38:08;11.93;;;5.28;;
44822;SDS011;51097;51.984;5.650;2023-04-07T10:40:35;12.73;;;4.65;;
44822;SDS011;51097;51.984;5.650;2023-04-07T10:43:02;12.48;;;5.75;;
44822;SDS011;51097;51.984;5.650;2023-04-07T10:48:13;14.95;;;5.65;;
44822;SDS011;51097;51.984;5.650;2023-04-07T10:50:40;14.00;;;4.35;;
44822;SDS011;51097;51.984;5.650;2023-04-07T10:53:10;12.50;;;4.38;;
44822;SDS011;51097;51.984;5.650;2023-04-07T10:55:40;7.15;;;4.55;;
44822;SDS011;51097;51.984;5.650;2023-04-07T10:58:23;9.95;;;3.80;;
44822;SDS011;51097;51.984;5.650;2023-04-07T11:03:39;9.60;;;4.53;;
44822;SDS011;51097;51.984;5.650;2023-04-07T11:06:09;8.00;;;4.22;;
44822;SDS011;51097;51.984;5.650;2023-04-07T11:11:02;8.13;;;3.67;;
44822;SDS011;51097;51.984;5.650;2023-04-07T11:13:39;9.15;;;4.15;;
44822;SDS011;51097;51.984;5.650;2023-04-07T11:16:05;7.82;;;3.33;;
44822;SDS011;51097;51.984;5.650;2023-04-07T11:18:32;10.40;;;3.90;;
44822;SDS011;51097;51.984;5.650;2023-04-07T11:20:59;8.38;;;3.95;;
44822;SDS011;51097;51.984;5.650;2023-04-07T11:23:24;7.47;;;3.85;;
44822;SDS011;51097;51.984;5.650;2023-04-07T11:25:51;8.10;;;4.20;;
44822;SDS011;51097;51.984;5.650;2023-04-07T11:28:23;5.90;;;3.92;;
44822;SDS011;51097;51.984;5.650;2023-04-07T11:30:52;7.40;;;3.90;;
44822;SDS011;51097;51.984;5.650;2023-04-07T11:33:22;6.22;;;3.15;;
44822;SDS011;51097;51.984;5.650;2023-04-07T11:36:08;11.27;;;4.15;;
44822;SDS011;51097;51.984;5.650;2023-04-07T11:38:34;8.57;;;3.60;;
44822;SDS011;51097;51.984;5.650;2023-04-07T11:41:11;8.73;;;3.92;;
44822;SDS011;51097;51.984;5.650;2023-04-07T11:43:38;4.93;;;3.83;;
44822;SDS011;51097;51.984;5.650;2023-04-07T11:48:37;7.20;;;4.65;;
44822;SDS011;51097;51.984;5.650;2023-04-07T11:51:03;5.97;;;3.90;;
44822;SDS011;51097;51.984;5.650;2023-04-07T11:53:31;6.22;;;4.30;;
44822;SDS011;51097;51.984;5.650;2023-04-07T11:56:05;7.68;;;5.63;;
44822;SDS011;51097;51.984;5.650;2023-04-07T11:58:34;8.25;;;4.45;;
44822;SDS011;51097;51.984;5.650;2023-04-07T12:01:01;9.30;;;4.25;;
44822;SDS011;51097;51.984;5.650;2023-04-07T12:03:30;10.73;;;4.53;;
44822;SDS011;51097;51.984;5.650;2023-04-07T12:05:58;9.95;;;4.10;;
44822;SDS011;51097;51.984;5.650;2023-04-07T12:08:40;10.45;;;4.57;;
44822;SDS011;51097;51.984;5.650;2023-04-07T12:11:06;13.55;;;4.78;;
44822;SDS011;51097;51.984;5.650;2023-04-07T12:13:33;9.02;;;4.05;;
44822;SDS011;51097;51.984;5.650;2023-04-07T12:15:59;7.22;;;4.30;;
44822;SDS011;51097;51.984;5.650;2023-04-07T12:18:25;8.68;;;4.68;;
44822;SDS011;51097;51.984;5.650;2023-04-07T12:20:52;7.32;;;4.72;;
44822;SDS011;51097;51.984;5.650;2023-04-07T12:23:18;8.50;;;4.40;;
44822;SDS011;51097;51.984;5.650;2023-04-07T12:25:43;11.98;;;5.53;;
44822;SDS011;51097;51.984;5.650;2023-04-07T12:28:09;11.30;;;6.07;;
44822;SDS011;51097;51.984;5.650;2023-04-07T12:30:35;13.23;;;4.88;;
44822;SDS011;51097;51.984;5.650;2023-04-07T12:33:00;7.68;;;5.00;;
44822;SDS011;51097;51.984;5.650;2023-04-07T12:35:27;10.05;;;5.03;;
44822;SDS011;51097;51.984;5.650;2023-04-07T12:37:54;7.50;;;4.63;;
44822;SDS011;51097;51.984;5.650;2023-04-07T12:40:20;9.27;;;4.38;;
44822;SDS011;51097;51.984;5.650;2023-04-07T12:42:50;11.03;;;4.30;;
44822;SDS011;51097;51.984;5.650;2023-04-07T12:45:16;8.43;;;4.68;;
44822;SDS011;51097;51.984;5.650;2023-04-07T12:47:43;5.53;;;4.15;;
44822;SDS011;51097;51.984;5.650;2023-04-07T12:50:09;8.95;;;4.32;;
44822;SDS011;51097;51.984;5.650;2023-04-07T12:52:35;10.85;;;5.22;;
44822;SDS011;51097;51.984;5.650;2023-04-07T12:55:01;7.50;;;5.18;;
44822;SDS011;51097;51.984;5.650;2023-04-07T12:57:27;8.23;;;4.82;;
44822;SDS011;51097;51.984;5.650;2023-04-07T12:59:52;13.13;;;5.20;;
44822;SDS011;51097;51.984;5.650;2023-04-07T13:02:18;11.40;;;4.88;;
44822;SDS011;51097;51.984;5.650;2023-04-07T13:04:45;7.40;;;5.10;;
44822;SDS011;51097;51.984;5.650;2023-04-07T13:07:11;12.77;;;5.75;;
44822;SDS011;51097;51.984;5.650;2023-04-07T13:09:37;11.80;;;5.43;;
44822;SDS011;51097;51.984;5.650;2023-04-07T13:12:05;14.07;;;5.82;;
44822;SDS011;51097;51.984;5.650;2023-04-07T13:14:31;11.77;;;5.57;;
44822;SDS011;51097;51.984;5.650;2023-04-07T13:16:56;12.73;;;5.57;;
44822;SDS011;51097;51.984;5.650;2023-04-07T13:19:22;8.20;;;4.35;;
44822;SDS011;51097;51.984;5.650;2023-04-07T13:21:47;10.05;;;4.78;;
44822;SDS011;51097;51.984;5.650;2023-04-07T13:24:13;8.38;;;4.57;;
44822;SDS011;51097;51.984;5.650;2023-04-07T13:26:38;6.35;;;4.18;;
44822;SDS011;51097;51.984;5.650;2023-04-07T13:29:04;8.88;;;4.63;;
44822;SDS011;51097;51.984;5.650;2023-04-07T13:31:30;9.98;;;4.88;;
44822;SDS011;51097;51.984;5.650;2023-04-07T13:33:55;12.50;;;5.55;;
44822;SDS011;51097;51.984;5.650;2023-04-07T13:36:21;8.18;;;5.07;;
44822;SDS011;51097;51.984;5.650;2023-04-07T13:38:46;12.32;;;5.40;;
44822;SDS011;51097;51.984;5.650;2023-04-07T13:41:12;7.40;;;5.70;;
44822;SDS011;51097;51.984;5.650;2023-04-07T13:43:37;9.48;;;5.40;;
44822;SDS011;51097;51.984;5.650;2023-04-07T13:46:03;9.82;;;4.55;;
44822;SDS011;51097;51.984;5.650;2023-04-07T13:48:29;10.18;;;5.28;;
44822;SDS011;51097;51.984;5.650;2023-04-07T13:50:54;7.28;;;4.40;;
44822;SDS011;51097;51.984;5.650;2023-04-07T13:53:20;9.10;;;6.32;;
44822;SDS011;51097;51.984;5.650;2023-04-07T13:55:45;7.68;;;4.40;;
44822;SDS011;51097;51.984;5.650;2023-04-07T13:58:11;10.73;;;5.20;;
44822;SDS011;51097;51.984;5.650;2023-04-07T14:00:37;8.48;;;4.60;;
44822;SDS011;51097;51.984;5.650;2023-04-07T14:03:04;12.88;;;4.90;;
44822;SDS011;51097;51.984;5.650;2023-04-07T14:05:29;7.70;;;4.57;;
44822;SDS011;51097;51.984;5.650;2023-04-07T14:07:55;11.25;;;5.22;;
44822;SDS011;51097;51.984;5.650;2023-04-07T14:10:20;10.85;;;5.85;;
44822;SDS011;51097;51.984;5.650;2023-04-07T14:12:46;7.25;;;4.82;;
44822;SDS011;51097;51.984;5.650;2023-04-07T14:15:12;7.82;;;5.72;;
44822;SDS011;51097;51.984;5.650;2023-04-07T14:17:38;7.72;;;4.82;;
44822;SDS011;51097;51.984;5.650;2023-04-07T14:20:03;5.82;;;4.72;;
44822;SDS011;51097;51.984;5.650;2023-04-07T14:22:30;9.27;;;4.72;;
44822;SDS011;51097;51.984;5.650;2023-04-07T14:24:55;9.57;;;5.25;;
44822;SDS011;51097;51.984;5.650;2023-04-07T14:27:21;8.52;;;4.97;;
44822;SDS011;51097;51.984;5.650;2023-04-07T14:29:47;8.90;;;5.10;;
44822;SDS011;51097;51.984;5.650;2023-04-07T14:32:12;8.68;;;5.00;;
44822;SDS011;51097;51.984;5.650;2023-04-07T14:34:38;7.63;;;5.38;;
44822;SDS011;51097;51.984;5.650;2023-04-07T14:37:03;8.48;;;4.75;;
44822;SDS011;51097;51.984;5.650;2023-04-07T14:39:30;8.10;;;5.28;;
44822;SDS011;51097;51.984;5.650;2023-04-07T14:41:55;10.90;;;5.25;;
44822;SDS011;51097;51.984;5.650;2023-04-07T14:44:21;6.05;;;4.07;;
44822;SDS011;51097;51.984;5.650;2023-04-07T14:46:46;7.90;;;5.22;;
44822;SDS011;51097;51.984;5.650;2023-04-07T14:49:13;7.63;;;4.72;;
44822;SDS011;51097;51.984;5.650;2023-04-07T14:51:38;8.68;;;4.00;;
44822;SDS011;51097;51.984;5.650;2023-04-07T14:54:04;7.70;;;4.32;;
44822;SDS011;51097;51.984;5.650;2023-04-07T14:56:29;8.50;;;4.07;;
44822;SDS011;51097;51.984;5.650;2023-04-07T14:58:55;8.02;;;4.45;;
44822;SDS011;51097;51.984;5.650;2023-04-07T15:01:21;8.07;;;4.20;;